Time;durP1;ratioP1;P1;durP2;ratioP2;P2;SDS_P1;SDS_P2;PMS_P1;PMS_P2;Temp;Humidity;BMP_temperature;BMP_pressure;BME280_temperature;BME280_humidity;BME280_pressure;Samples;Min_cycle;Max_cycle;Signal;HPM_P1;HPM_P2
2021/07/03 00:01:45;;;;;;;5.10;3.00;;;;;;;16.33;64.72;101079.88;5049730;28;20194;-65
2021/07/03 00:04:14;;;;;;;5.37;2.90;;;;;;;16.34;64.32;101078.00;5050524;28;20202;-65
2021/07/03 00:06:42;;;;;;;5.73;2.70;;;;;;;16.22;64.40;101055.50;5050039;28;20297;-66
2021/07/03 00:09:12;;;;;;;3.73;2.80;;;;;;;16.34;64.84;101076.16;5052200;28;20204;-65
2021/07/03 00:11:40;;;;;;;6.90;3.20;;;;;;;16.31;65.32;101076.44;5052110;28;20198;-66
2021/07/03 00:14:09;;;;;;;5.10;2.83;;;;;;;16.30;64.58;101071.13;5051045;28;21183;-66
2021/07/03 00:16:37;;;;;;;7.00;3.43;;;;;;;16.31;64.65;101073.72;5050297;28;20765;-66
2021/07/03 00:19:06;;;;;;;3.83;2.87;;;;;;;16.32;64.32;101075.44;5047196;28;21352;-66
2021/07/03 00:21:37;;;;;;;3.33;2.63;;;;;;;16.34;64.55;101083.44;5047671;28;20761;-65
2021/07/03 00:24:06;;;;;;;6.33;2.93;;;;;;;16.34;64.58;101076.16;5050158;28;20194;-65
2021/07/03 00:26:34;;;;;;;4.40;3.27;;;;;;;16.26;63.97;101065.13;5047190;28;20204;-65
2021/07/03 00:29:02;;;;;;;4.20;2.73;;;;;;;16.26;64.61;101057.00;5047043;28;20205;-65
2021/07/03 00:31:30;;;;;;;4.33;3.07;;;;;;;16.35;64.70;101080.59;5046741;28;20606;-66
2021/07/03 00:33:58;;;;;;;3.17;2.77;;;;;;;16.37;64.09;101083.16;5048116;28;20566;-66
2021/07/03 00:36:27;;;;;;;5.87;2.93;;;;;;;16.39;64.18;101078.47;5047532;28;20224;-67
2021/07/03 00:38:56;;;;;;;3.93;3.13;;;;;;;16.13;64.97;101038.22;5047354;28;20194;-67
2021/07/03 00:41:24;;;;;;;3.80;2.83;;;;;;;16.42;64.57;101081.75;5046447;28;20202;-67
2021/07/03 00:43:52;;;;;;;4.30;3.00;;;;;;;16.43;64.35;101077.19;5047316;28;20289;-67
2021/07/03 00:46:20;;;;;;;5.70;3.07;;;;;;;16.43;64.24;101075.34;5048425;28;20235;-67
2021/07/03 00:48:49;;;;;;;3.77;2.93;;;;;;;16.43;64.22;101080.78;5063337;28;20746;-67
2021/07/03 00:51:20;;;;;;;3.57;2.77;;;;;;;16.41;64.16;101074.63;5045648;28;20257;-67
2021/07/03 00:53:49;;;;;;;3.77;2.93;;;;;;;16.45;64.38;101078.78;5046901;28;20683;-67
2021/07/03 00:56:19;;;;;;;4.67;3.00;;;;;;;16.46;65.22;101076.94;5059539;28;20237;-67
2021/07/03 00:58:48;;;;;;;4.40;3.23;;;;;;;16.46;65.00;101083.22;5047316;28;20218;-68
2021/07/03 01:01:16;;;;;;;4.40;3.10;;;;;;;16.50;65.05;101081.09;5042704;28;20205;-67
2021/07/03 01:03:44;;;;;;;4.27;2.93;;;;;;;16.48;64.61;101069.53;5048481;28;20607;-67
2021/07/03 01:06:13;;;;;;;4.97;3.20;;;;;;;16.56;64.18;101082.44;5049692;28;20194;-66
2021/07/03 01:08:41;;;;;;;4.07;2.70;;;;;;;16.58;64.61;101080.44;5048367;28;20198;-66
2021/07/03 01:11:10;;;;;;;8.53;3.13;;;;;;;16.61;64.30;101074.75;5047253;28;20210;-66
2021/07/03 01:13:40;;;;;;;4.47;2.93;;;;;;;16.62;64.93;101073.75;5044463;28;20224;-66
2021/07/03 01:16:18;;;;;;;4.43;3.27;;;;;;;16.58;63.86;101064.16;5043280;28;20248;-66
2021/07/03 01:18:47;;;;;;;4.17;2.97;;;;;;;16.67;63.85;101079.66;5045608;28;20677;-66
2021/07/03 01:21:16;;;;;;;4.03;2.97;;;;;;;16.68;63.54;101074.09;5044081;28;20303;-66
2021/07/03 01:23:46;;;;;;;4.33;2.97;;;;;;;16.68;63.58;101065.09;5048240;28;20645;-66
2021/07/03 01:26:15;;;;;;;6.60;2.90;;;;;;;16.69;63.46;101077.66;5045605;28;20669;-66
2021/07/03 01:28:43;;;;;;;4.77;3.23;;;;;;;16.68;63.52;101074.09;5042735;28;20611;-66
2021/07/03 01:31:13;;;;;;;4.97;3.30;;;;;;;16.51;64.26;101041.28;5059831;28;20237;-66
2021/07/03 01:33:42;;;;;;;3.43;2.80;;;;;;;16.45;63.92;101029.97;5043628;28;20213;-66
2021/07/03 01:36:11;;;;;;;4.53;2.90;;;;;;;16.65;64.76;101065.34;5048050;28;20206;-66
2021/07/03 01:38:39;;;;;;;4.53;3.10;;;;;;;16.63;64.32;101056.50;5040758;28;20281;-65
2021/07/03 01:41:14;;;;;;;4.17;3.30;;;;;;;16.64;64.33;101067.19;5055569;28;20217;-65
2021/07/03 01:43:50;;;;;;;4.43;2.87;;;;;;;16.63;64.80;101068.19;5040908;28;20301;-65
2021/07/03 01:46:19;;;;;;;4.60;2.97;;;;;;;16.60;65.13;101067.59;5043146;28;20248;-65
2021/07/03 01:48:48;;;;;;;8.93;3.80;;;;;;;16.54;65.91;101062.72;5040839;28;20257;-65
2021/07/03 01:51:25;;;;;;;3.77;3.30;;;;;;;16.57;65.23;101067.88;5042087;28;20251;-65
2021/07/03 01:53:54;;;;;;;4.87;3.40;;;;;;;16.56;65.45;101066.16;5050203;28;20198;-65
2021/07/03 01:56:24;;;;;;;5.60;3.33;;;;;;;16.60;65.62;101060.31;5040905;28;20198;-65
2021/07/03 01:58:52;;;;;;;4.87;3.60;;;;;;;16.58;65.72;101064.16;5040249;28;20206;-65
2021/07/03 02:01:34;;;;;;;5.23;4.00;;;;;;;16.57;65.72;101066.03;5039660;28;20197;-65
2021/07/03 02:04:04;;;;;;;5.70;3.33;;;;;;;16.59;67.38;101063.19;5040400;28;20209;-67
2021/07/03 02:06:43;;;;;;;5.23;3.83;;;;;;;16.59;67.05;101064.03;5040340;28;20423;-67
2021/07/03 02:09:15;;;;;;;4.33;3.50;;;;;;;16.53;67.30;101055.56;5040785;28;20296;-67
2021/07/03 02:11:45;;;;;;;5.60;3.73;;;;;;;16.64;66.93;101060.91;5045568;28;20312;-66
2021/07/03 02:14:19;;;;;;;4.47;3.43;;;;;;;16.59;67.87;101064.03;5041570;28;20197;-68
2021/07/03 02:17:02;;;;;;;5.33;3.37;;;;;;;16.65;67.32;101070.75;5047255;28;20218;-65
2021/07/03 02:19:31;;;;;;;4.47;3.30;;;;;;;16.62;68.04;101066.47;5047501;28;20197;-65
2021/07/03 02:22:00;;;;;;;3.80;3.03;;;;;;;16.62;68.17;101060.19;5046222;28;20205;-65
2021/07/03 02:24:38;;;;;;;4.73;3.07;;;;;;;16.68;67.66;101065.97;5047221;28;20214;-65
2021/07/03 02:27:09;;;;;;;5.03;3.40;;;;;;;16.72;67.72;101050.28;5039790;28;20202;-66
2021/07/03 02:29:39;;;;;;;12.03;3.47;;;;;;;16.78;67.13;101060.56;5045573;28;20320;-66
2021/07/03 02:32:08;;;;;;;5.20;3.33;;;;;;;16.88;66.66;101056.06;5047266;28;20652;-67
2021/07/03 02:34:36;;;;;;;4.83;3.17;;;;;;;16.88;67.73;101047.06;5046430;28;20234;-66
2021/07/03 02:37:05;;;;;;;5.27;3.27;;;;;;;17.00;67.99;101045.97;5045081;28;20209;-67
2021/07/03 02:39:36;;;;;;;7.93;3.60;;;;;;;17.35;69.82;101038.19;5045683;28;20217;-67
2021/07/03 02:42:05;;;;;;;7.57;3.60;;;;;;;18.02;69.14;101057.41;5044052;28;20202;-67
2021/07/03 02:44:36;;;;;;;5.87;3.20;;;;;;;18.68;68.93;101049.31;5063704;28;20198;-68
2021/07/03 02:47:05;;;;;;;4.73;3.37;;;;;;;19.40;66.84;101052.06;5043937;28;20255;-68
2021/07/03 02:49:33;;;;;;;3.90;3.03;;;;;;;20.08;66.03;101046.09;5045717;28;20201;-66
2021/07/03 02:52:02;;;;;;;3.63;3.00;;;;;;;20.81;64.31;101048.47;5040888;28;20197;-66
2021/07/03 02:54:32;;;;;;;4.03;3.00;;;;;;;21.51;62.01;101043.66;5060162;28;20293;-66
2021/07/03 02:57:01;;;;;;;4.23;2.77;;;;;;;22.09;59.83;101031.78;5044144;28;20205;-66
2021/07/03 02:59:31;;;;;;;6.07;3.60;;;;;;;22.70;58.31;101046.75;5059781;28;20190;-67
2021/07/03 03:02:03;;;;;;;3.20;2.90;;;;;;;23.17;56.13;101047.63;5061456;28;20534;-66
2021/07/03 03:04:34;;;;;;;4.10;3.17;;;;;;;23.32;54.75;101044.13;5042988;28;20198;-66
2021/07/03 03:07:03;;;;;;;3.73;2.93;;;;;;;23.35;54.37;101043.78;5043007;28;20222;-66
2021/07/03 03:09:31;;;;;;;3.53;2.33;;;;;;;23.03;54.19;101044.78;5045468;28;20569;-66
2021/07/03 03:12:01;;;;;;;2.90;2.60;;;;;;;22.52;54.97;100993.06;5047156;28;20190;-66
2021/07/03 03:14:29;;;;;;;3.70;2.90;;;;;;;22.70;55.19;101049.50;5043753;28;20198;-66
2021/07/03 03:16:57;;;;;;;3.10;2.47;;;;;;;22.76;55.55;101057.00;5048186;28;20200;-66
2021/07/03 03:19:27;;;;;;;4.20;3.20;;;;;;;22.73;55.10;101054.63;5046344;28;20487;-67
2021/07/03 03:21:55;;;;;;;3.67;2.90;;;;;;;22.15;55.87;101017.41;5062153;28;20233;-68
2021/07/03 03:24:24;;;;;;;4.40;3.10;;;;;;;22.01;56.20;101047.13;5046154;28;20243;-68
2021/07/03 03:26:54;;;;;;;3.90;3.00;;;;;;;21.83;56.50;101046.44;5043297;28;20669;-68
2021/07/03 03:29:24;;;;;;;4.43;3.13;;;;;;;21.66;57.00;101055.66;5046961;28;20202;-68
2021/07/03 03:31:55;;;;;;;3.77;2.93;;;;;;;21.45;58.02;101053.41;5047039;28;20645;-68
2021/07/03 03:34:24;;;;;;;4.67;2.60;;;;;;;21.32;58.67;101050.28;5046977;28;20665;-67
2021/07/03 03:36:55;;;;;;;6.60;2.63;;;;;;;21.13;59.31;101048.66;5042047;28;20206;-67
2021/07/03 03:39:25;;;;;;;4.97;2.80;;;;;;;21.06;59.34;101051.16;5046085;28;20232;-68
2021/07/03 03:41:54;;;;;;;3.30;2.83;;;;;;;20.98;59.26;101028.44;5046394;28;20210;-68
2021/07/03 03:44:22;;;;;;;3.23;2.67;;;;;;;20.96;59.76;101047.72;5051623;28;20630;-66
2021/07/03 03:46:52;;;;;;;3.73;2.87;;;;;;;20.81;60.48;101043.03;5041357;28;20302;-66
2021/07/03 03:49:25;;;;;;;4.50;3.10;;;;;;;20.77;60.60;101054.25;5044578;28;20296;-65
2021/07/03 03:51:56;;;;;;;3.67;3.27;;;;;;;20.70;60.55;101058.66;5042086;28;20860;-66
2021/07/03 03:54:26;;;;;;;7.10;2.90;;;;;;;20.49;61.66;101054.59;5043706;28;20627;-66
2021/07/03 03:59:38;;;;;;;3.97;3.00;;;;;;;20.32;62.01;101048.16;5038884;28;20217;-66
2021/07/03 04:02:07;;;;;;;2.70;2.50;;;;;;;20.31;62.14;101046.44;5042491;28;20256;-66
2021/07/03 04:04:38;;;;;;;3.27;2.80;;;;;;;20.26;62.10;101048.81;5041642;28;20285;-66
2021/07/03 04:07:07;;;;;;;4.30;3.07;;;;;;;20.06;63.24;101037.22;5041436;28;20206;-66
2021/07/03 04:09:37;;;;;;;3.10;2.80;;;;;;;19.88;63.19;101017.28;5038247;28;20213;-67
2021/07/03 04:12:05;;;;;;;3.77;3.10;;;;;;;20.07;63.45;101053.41;5052892;28;20673;-66
2021/07/03 04:14:33;;;;;;;3.33;2.70;;;;;;;20.14;63.14;101062.69;5047307;28;20216;-66
2021/07/03 04:17:01;;;;;;;3.57;3.00;;;;;;;20.13;62.92;101058.25;5046519;28;20268;-66
2021/07/03 04:19:30;;;;;;;3.97;2.70;;;;;;;20.15;63.33;101063.53;5045480;28;20724;-66
2021/07/03 04:21:58;;;;;;;4.73;3.00;;;;;;;19.96;64.21;101061.88;5044896;28;20198;-65
2021/07/03 04:24:28;;;;;;;5.40;3.00;;;;;;;20.02;64.39;101057.66;5046973;28;20687;-65
2021/07/03 04:26:56;;;;;;;3.50;2.80;;;;;;;19.98;64.76;101045.34;5047483;28;20210;-64
2021/07/03 04:29:28;;;;;;;3.23;2.63;;;;;;;19.96;64.93;101055.56;5041078;28;20194;-65
2021/07/03 04:31:56;;;;;;;3.23;2.93;;;;;;;19.86;65.19;101047.44;5043556;28;20190;-65
2021/07/03 04:34:25;;;;;;;3.83;2.90;;;;;;;19.89;65.21;101057.16;5044117;28;20287;-65
2021/07/03 04:36:53;;;;;;;4.80;3.00;;;;;;;19.78;64.86;101050.09;5040123;28;20213;-66
2021/07/03 04:39:21;;;;;;;4.73;2.80;;;;;;;19.88;64.37;101056.31;5041564;28;20219;-66
2021/07/03 04:41:51;;;;;;;4.30;2.80;;;;;;;19.86;64.57;101052.88;5042228;28;20677;-65
2021/07/03 04:44:20;;;;;;;4.77;3.10;;;;;;;19.89;64.42;101047.13;5054710;28;20297;-66
2021/07/03 04:46:48;;;;;;;4.57;2.90;;;;;;;19.84;64.15;101053.03;5042088;28;20209;-66
2021/07/03 04:49:16;;;;;;;6.07;2.90;;;;;;;19.94;64.03;101044.81;5046494;28;20199;-65
2021/07/03 04:51:45;;;;;;;6.57;3.30;;;;;;;19.92;63.92;101041.38;5044742;28;20388;-66
2021/07/03 04:54:13;;;;;;;4.30;2.70;;;;;;;19.88;64.47;101039.94;5049871;28;20206;-66
2021/07/03 04:56:41;;;;;;;3.40;2.67;;;;;;;19.88;64.01;101039.94;5039328;28;20269;-65
2021/07/03 04:59:13;;;;;;;3.53;2.90;;;;;;;20.09;64.11;101043.22;5042356;28;20224;-65
2021/07/03 05:01:42;;;;;;;6.03;3.07;;;;;;;19.98;63.63;101046.19;5042858;28;20197;-65
2021/07/03 05:04:10;;;;;;;5.20;3.07;;;;;;;20.22;64.30;101050.16;5043454;28;20731;-65
2021/07/03 05:06:40;;;;;;;3.20;2.70;;;;;;;20.43;63.91;101047.91;5042408;28;20273;-66
2021/07/03 05:09:08;;;;;;;5.83;3.30;;;;;;;20.61;63.53;101042.41;5047178;28;20197;-65
2021/07/03 05:11:36;;;;;;;3.10;2.80;;;;;;;20.78;63.21;101053.25;5044221;28;20225;-67
2021/07/03 05:14:05;;;;;;;4.97;2.97;;;;;;;20.99;62.73;101043.81;5043907;28;20198;-68
2021/07/03 05:16:34;;;;;;;5.80;3.27;;;;;;;21.18;62.49;101037.22;5044666;28;20205;-67
2021/07/03 05:19:04;;;;;;;3.10;2.80;;;;;;;21.31;61.36;101045.81;5044141;28;20264;-67
2021/07/03 05:21:32;;;;;;;3.07;2.73;;;;;;;21.53;61.19;101038.88;5040190;28;20615;-67
2021/07/03 05:24:00;;;;;;;4.03;2.90;;;;;;;21.70;60.09;101033.25;5039361;28;20198;-72
2021/07/03 05:26:28;;;;;;;3.93;2.83;;;;;;;21.94;60.07;101035.16;5042722;28;20569;-67
2021/07/03 05:28:56;;;;;;;2.87;2.50;;;;;;;22.11;59.26;101041.53;5041547;28;20682;-67
2021/07/03 05:31:24;;;;;;;4.13;2.70;;;;;;;22.27;59.01;101032.44;5043641;28;20225;-68
2021/07/03 05:33:54;;;;;;;2.83;2.53;;;;;;;22.52;57.89;101030.53;5037909;28;20201;-67
2021/07/03 05:36:22;;;;;;;2.80;2.60;;;;;;;22.78;58.43;101027.56;5040799;28;20204;-67
2021/07/03 05:38:50;;;;;;;5.13;3.87;;;;;;;22.98;58.17;101033.50;5038679;28;20224;-70
2021/07/03 05:41:19;;;;;;;2.90;2.60;;;;;;;23.17;56.83;101028.44;5037610;28;20198;-67
2021/07/03 05:50:44;;;;;;;2.67;2.47;;;;;;;23.13;53.96;100947.63;5034107;28;20297;-66
2021/07/03 05:53:19;;;;;;;3.50;2.60;;;;;;;23.91;54.59;101028.88;5057082;28;20267;-66
2021/07/03 05:55:47;;;;;;;3.07;2.70;;;;;;;24.08;53.61;101033.16;5039537;28;20398;-65
2021/07/03 05:58:16;;;;;;;2.60;2.33;;;;;;;24.15;53.03;101031.38;5041809;28;20205;-67
2021/07/03 06:00:44;;;;;;;3.00;2.70;;;;;;;24.04;52.94;101033.72;5041374;28;20218;-65
2021/07/03 06:03:12;;;;;;;3.63;3.00;;;;;;;24.18;53.09;101019.16;5037585;28;20585;-65
2021/07/03 06:05:42;;;;;;;2.67;2.47;;;;;;;24.59;52.67;101038.03;5041693;28;20217;-65
2021/07/03 06:08:10;;;;;;;3.87;2.50;;;;;;;24.80;53.62;101038.16;5045830;28;20202;-65
2021/07/03 06:10:38;;;;;;;2.83;2.43;;;;;;;24.95;52.16;101032.63;5054559;28;20190;-65
2021/07/03 06:13:08;;;;;;;2.60;2.40;;;;;;;25.17;51.51;101037.19;5049267;28;20200;-67
2021/07/03 06:15:36;;;;;;;2.50;2.30;;;;;;;25.33;49.90;101041.59;5049941;28;20209;-65
2021/07/03 06:18:04;;;;;;;2.80;2.58;;;;;;;25.36;50.36;101038.47;5049307;28;20720;-65
2021/07/03 06:20:32;;;;;;;5.00;2.63;;;;;;;25.74;50.53;101043.81;5048589;28;20217;-65
2021/07/03 06:23:02;;;;;;;2.55;2.30;;;;;;;25.77;49.19;101037.91;5048662;28;20220;-65
2021/07/03 06:25:31;;;;;;;3.20;2.40;;;;;;;26.03;49.33;101046.44;5048002;28;20200;-65
2021/07/03 06:27:59;;;;;;;4.85;2.72;;;;;;;26.17;49.27;101045.50;5050583;28;20197;-66
2021/07/03 06:30:27;;;;;;;4.60;2.40;;;;;;;26.20;48.85;101049.75;5049126;28;20226;-67
2021/07/03 06:32:55;;;;;;;4.38;2.85;;;;;;;26.57;49.11;101048.59;5047385;28;20217;-67
2021/07/03 06:35:23;;;;;;;4.00;2.58;;;;;;;26.72;48.77;101049.34;5050645;28;20225;-67
2021/07/03 06:37:51;;;;;;;3.05;2.58;;;;;;;26.81;47.37;101052.78;5041747;28;20198;-67
2021/07/03 06:40:21;;;;;;;2.88;2.50;;;;;;;26.85;47.60;101056.84;5057012;28;20513;-67
2021/07/03 06:42:49;;;;;;;2.50;2.30;;;;;;;27.04;47.41;101058.03;5051875;28;20221;-67
2021/07/03 06:45:17;;;;;;;2.78;2.40;;;;;;;27.20;47.88;101060.44;5044340;28;20202;-67
2021/07/03 06:47:45;;;;;;;4.38;2.20;;;;;;;27.33;46.43;101052.25;5047022;28;20202;-67
2021/07/03 06:50:14;;;;;;;2.47;2.28;;;;;;;27.32;46.23;101060.72;5046667;28;20191;-67
2021/07/03 06:52:42;;;;;;;3.35;2.60;;;;;;;27.05;45.90;101041.28;5050108;28;20209;-67
2021/07/03 06:55:12;;;;;;;2.88;2.45;;;;;;;27.26;45.85;101056.03;5045543;28;20207;-67
2021/07/03 06:57:41;;;;;;;3.45;2.25;;;;;;;27.53;46.13;101060.56;5052117;28;20638;-66
2021/07/03 07:00:11;;;;;;;2.40;2.20;;;;;;;27.61;44.90;101065.94;5049052;28;20229;-67
2021/07/03 07:02:39;;;;;;;2.40;2.20;;;;;;;27.72;44.48;101064.50;5040453;28;20588;-67
2021/07/03 07:05:08;;;;;;;2.47;2.22;;;;;;;27.83;45.30;101066.63;5041076;28;20209;-67
2021/07/03 07:07:37;;;;;;;2.50;2.28;;;;;;;27.73;45.05;101042.19;5061874;28;20198;-66
2021/07/03 07:10:06;;;;;;;3.88;2.17;;;;;;;28.20;44.73;101067.13;5049908;28;20225;-67
2021/07/03 07:12:34;;;;;;;2.58;2.00;;;;;;;28.56;44.54;101067.56;5046083;28;20227;-67
2021/07/03 07:15:05;;;;;;;4.85;2.50;;;;;;;28.52;43.94;101062.69;5045466;28;20696;-67
2021/07/03 07:17:33;;;;;;;3.00;2.47;;;;;;;28.62;43.36;101063.94;5045969;28;20669;-67
2021/07/03 07:20:02;;;;;;;2.40;2.20;;;;;;;28.71;43.64;101064.56;5046442;28;20806;-67
2021/07/03 07:22:30;;;;;;;3.00;2.22;;;;;;;28.72;42.44;101061.59;5046303;28;20194;-67
2021/07/03 07:24:58;;;;;;;3.22;2.22;;;;;;;28.67;42.27;101061.38;5045000;28;20201;-67
2021/07/03 07:27:27;;;;;;;2.53;2.33;;;;;;;28.09;41.32;101050.09;5059547;28;20237;-67
2021/07/03 07:29:55;;;;;;;3.17;2.15;;;;;;;28.23;42.13;101047.38;5044045;28;20209;-67
2021/07/03 07:32:25;;;;;;;2.15;2.05;;;;;;;28.05;42.19;101056.25;5046872;28;20199;-67
2021/07/03 07:34:53;;;;;;;4.13;2.40;;;;;;;28.14;42.12;101055.84;5046572;28;20198;-67
2021/07/03 07:37:21;;;;;;;2.50;1.90;;;;;;;28.50;42.68;101054.63;5048580;28;20486;-67
2021/07/03 07:39:50;;;;;;;2.13;2.00;;;;;;;28.64;42.11;101047.16;5045802;28;20218;-67
2021/07/03 07:42:18;;;;;;;2.30;2.10;;;;;;;28.69;41.95;101055.63;5048959;28;20209;-67
2021/07/03 07:44:47;;;;;;;2.58;2.38;;;;;;;28.46;41.91;101047.78;5045691;28;20284;-67
2021/07/03 07:47:15;;;;;;;2.42;2.15;;;;;;;28.52;42.31;101029.53;5043209;28;20764;-67
2021/07/03 07:49:45;;;;;;;2.78;2.30;;;;;;;28.90;42.17;101049.88;5045029;28;20198;-67
2021/07/03 07:52:13;;;;;;;2.13;2.03;;;;;;;28.57;41.77;101052.69;5044891;28;20557;-67
2021/07/03 07:54:41;;;;;;;5.53;2.25;;;;;;;28.10;41.06;101034.38;5042941;28;20204;-67
2021/07/03 07:57:09;;;;;;;3.40;2.22;;;;;;;28.01;41.42;101053.09;5043438;28;20209;-67
2021/07/03 07:59:37;;;;;;;3.45;2.40;;;;;;;28.05;42.38;101050.75;5042956;28;20190;-67
2021/07/03 08:02:05;;;;;;;3.55;2.10;;;;;;;27.97;41.83;101050.94;5045150;28;20577;-67
2021/07/03 08:04:34;;;;;;;2.50;2.30;;;;;;;28.05;41.78;101045.22;5046428;28;20198;-67
2021/07/03 08:07:04;;;;;;;3.30;2.03;;;;;;;28.02;41.63;101057.53;5041833;28;20203;-68
2021/07/03 08:09:32;;;;;;;2.75;2.10;;;;;;;27.99;41.90;101060.72;5043600;28;20199;-67
2021/07/03 08:12:00;;;;;;;2.55;2.20;;;;;;;28.01;41.82;101061.38;5043816;28;20198;-67
2021/07/03 08:14:28;;;;;;;2.45;1.98;;;;;;;27.75;42.65;101061.31;5045042;28;20293;-67
2021/07/03 08:16:56;;;;;;;3.63;2.10;;;;;;;27.69;42.39;101062.16;5048237;28;20683;-67
2021/07/03 08:19:25;;;;;;;2.80;2.17;;;;;;;27.69;42.83;101062.16;5043744;28;20446;-66
2021/07/03 08:21:57;;;;;;;2.45;2.25;;;;;;;27.85;42.68;101053.47;5043419;28;20596;-66
2021/07/03 08:24:27;;;;;;;2.65;2.22;;;;;;;28.08;42.62;101062.22;5045254;28;20661;-65
2021/07/03 08:26:55;;;;;;;2.45;2.00;;;;;;;28.01;41.87;101066.88;5043888;28;20205;-65
2021/07/03 08:29:23;;;;;;;2.22;2.03;;;;;;;28.11;42.03;101066.47;5043593;28;20227;-66
2021/07/03 08:31:51;;;;;;;2.42;2.22;;;;;;;28.02;41.90;101023.53;5044815;28;20601;-67
2021/07/03 08:34:19;;;;;;;2.75;2.20;;;;;;;28.34;41.17;101061.41;5038995;28;20208;-67
2021/07/03 08:36:47;;;;;;;2.67;2.17;;;;;;;28.11;40.58;101067.31;5040725;28;20225;-67
2021/07/03 08:39:15;;;;;;;2.13;1.92;;;;;;;27.98;40.99;101055.41;5046024;28;20239;-68
2021/07/03 08:41:45;;;;;;;2.92;2.10;;;;;;;28.05;40.76;101062.63;5045510;28;20268;-68
2021/07/03 08:44:16;;;;;;;3.97;2.30;;;;;;;28.55;41.14;101060.34;5042511;28;20224;-66
2021/07/03 08:46:44;;;;;;;2.63;2.42;;;;;;;28.57;41.62;101055.47;5039729;28;20227;-66
2021/07/03 08:49:13;;;;;;;3.88;2.50;;;;;;;28.63;43.19;101068.41;5038947;28;20195;-68
2021/07/03 08:51:42;;;;;;;2.30;2.10;;;;;;;28.60;43.08;101055.03;5045584;28;20600;-68
2021/07/03 08:54:10;;;;;;;2.30;2.10;;;;;;;28.83;42.51;101050.94;5043866;28;20205;-67
2021/07/03 08:56:38;;;;;;;2.63;2.10;;;;;;;28.64;40.20;101053.53;5046819;28;20214;-68
2021/07/03 08:59:16;;;;;;;5.03;2.22;;;;;;;28.48;40.52;101050.38;5046402;28;20598;-67
2021/07/03 09:01:49;;;;;;;3.58;2.05;;;;;;;28.33;40.69;101042.28;5042573;28;20756;-67
2021/07/03 09:04:17;;;;;;;4.38;1.88;;;;;;;28.17;39.54;101048.22;5044153;28;20198;-66
2021/07/03 09:06:46;;;;;;;3.63;1.98;;;;;;;28.19;39.09;101040.56;5039462;28;20220;-67
2021/07/03 09:09:24;;;;;;;3.90;1.67;;;;;;;28.13;39.06;101043.09;5051297;28;20204;-66
2021/07/03 09:11:55;;;;;;;2.25;1.90;;;;;;;27.97;38.98;101021.44;5041407;28;20205;-67
2021/07/03 09:14:30;;;;;;;2.30;1.60;;;;;;;28.09;39.16;101046.50;5041390;28;20198;-67
2021/07/03 09:16:59;;;;;;;1.85;1.70;;;;;;;28.00;39.12;101028.44;5044795;28;20190;-67
2021/07/03 09:19:27;;;;;;;2.05;1.80;;;;;;;27.86;38.67;101041.38;5038051;28;20191;-67
2021/07/03 09:21:56;;;;;;;2.03;1.88;;;;;;;27.30;39.13;101043.53;5040517;28;20572;-67
2021/07/03 09:24:30;;;;;;;2.00;1.83;;;;;;;27.38;39.88;101043.34;5045830;28;20196;-67
2021/07/03 09:27:00;;;;;;;3.38;1.90;;;;;;;27.45;40.35;101053.34;5051919;28;20279;-68
2021/07/03 09:29:30;;;;;;;3.60;1.98;;;;;;;27.38;39.91;101041.44;5051162;28;20203;-68
2021/07/03 09:32:08;;;;;;;1.80;1.60;;;;;;;27.24;39.29;101047.94;5050086;28;20583;-68
2021/07/03 09:34:36;;;;;;;1.58;1.48;;;;;;;27.05;39.51;101052.31;5048408;28;20203;-67
2021/07/03 09:37:05;;;;;;;2.03;1.70;;;;;;;26.90;39.11;101052.41;5043001;28;20311;-68
2021/07/03 09:39:33;;;;;;;1.98;1.77;;;;;;;26.74;41.19;101047.22;5045892;28;20210;-67
2021/07/03 09:42:01;;;;;;;2.28;1.90;;;;;;;26.86;41.23;101051.13;5043210;28;20224;-67
2021/07/03 09:44:31;;;;;;;2.17;1.98;;;;;;;26.67;41.91;101049.09;5047091;28;20204;-68
2021/07/03 09:46:59;;;;;;;2.20;2.00;;;;;;;26.83;43.41;101051.53;5045047;28;20685;-68
2021/07/03 09:49:28;;;;;;;2.78;2.20;;;;;;;26.72;43.13;101065.03;5050876;28;20200;-68
2021/07/03 09:51:58;;;;;;;2.20;1.95;;;;;;;26.69;42.75;101052.50;5046979;28;20532;-68
2021/07/03 09:54:28;;;;;;;2.78;2.20;;;;;;;27.11;41.58;101065.28;5047580;28;20580;-67
2021/07/03 09:56:59;;;;;;;1.92;1.80;;;;;;;27.39;39.42;101054.16;5051325;28;20525;-68
2021/07/03 09:59:28;;;;;;;11.15;1.73;;;;;;;27.71;36.78;101049.00;5053093;28;20192;-67
2021/07/03 10:01:58;;;;;;;3.00;1.77;;;;;;;27.52;35.32;101023.84;5051805;28;20218;-66
2021/07/03 10:04:27;;;;;;;1.70;1.60;;;;;;;27.85;37.51;101056.22;5058625;28;20202;-67
2021/07/03 10:07:01;;;;;;;1.73;1.63;;;;;;;28.02;37.55;101063.06;5049559;28;20522;-66
2021/07/03 10:09:35;;;;;;;2.78;1.70;;;;;;;27.91;34.43;101054.56;5049051;28;20537;-66
2021/07/03 10:12:07;;;;;;;1.73;1.48;;;;;;;27.94;34.40;101068.78;5056176;28;20190;-66
2021/07/03 10:14:40;;;;;;;2.10;1.88;;;;;;;28.12;36.40;101052.44;5046906;28;20213;-66
2021/07/03 10:17:10;;;;;;;1.60;1.50;;;;;;;28.34;37.27;101063.31;5049255;28;20572;-66
2021/07/03 10:19:39;;;;;;;2.33;1.40;;;;;;;28.20;34.00;101056.09;5052410;28;20189;-66
2021/07/03 10:22:15;;;;;;;2.53;1.70;;;;;;;28.44;32.68;101048.00;5059880;28;20218;-67
2021/07/03 10:24:45;;;;;;;2.65;1.88;;;;;;;28.52;35.93;101057.16;5065420;28;20641;-66
2021/07/03 10:27:17;;;;;;;2.20;2.00;;;;;;;28.35;39.64;101029.09;5041781;28;20205;-66
2021/07/03 10:29:47;;;;;;;3.50;2.30;;;;;;;28.39;39.99;101052.47;5049331;28;20220;-66
2021/07/03 10:32:22;;;;;;;3.17;2.05;;;;;;;28.50;40.23;101053.78;5050830;28;20194;-67
2021/07/03 10:34:51;;;;;;;2.22;2.03;;;;;;;28.30;40.71;101059.28;5049374;28;20197;-68
2021/07/03 10:37:31;;;;;;;2.88;2.30;;;;;;;28.55;42.00;101052.06;5049469;28;20594;-68
2021/07/03 10:40:00;;;;;;;4.65;2.50;;;;;;;28.45;42.34;101059.91;5037361;28;20194;-68
2021/07/03 10:42:30;;;;;;;5.07;2.50;;;;;;;28.52;41.67;101052.50;5046699;28;20264;-67
2021/07/03 10:45:09;;;;;;;2.42;2.22;;;;;;;28.12;41.86;101054.34;5041520;28;20195;-67
2021/07/03 10:47:39;;;;;;;8.27;2.58;;;;;;;27.84;42.97;101049.00;5041471;28;20206;-67
2021/07/03 10:50:19;;;;;;;3.95;2.60;;;;;;;27.92;45.22;101068.16;5039677;28;20194;-67
2021/07/03 10:52:48;;;;;;;3.90;2.20;;;;;;;27.79;46.01;101068.97;5048188;28;20189;-68
2021/07/03 10:55:30;;;;;;;4.43;2.70;;;;;;;28.05;45.74;101059.88;5044848;28;20361;-68
2021/07/03 10:58:00;;;;;;;4.47;2.83;;;;;;;27.95;45.77;101056.69;5042918;28;20197;-67
2021/07/03 11:00:29;;;;;;;4.18;3.13;;;;;;;27.79;46.97;101068.97;5038668;28;20195;-68
2021/07/03 11:02:59;;;;;;;3.47;2.60;;;;;;;27.76;47.14;101060.25;5042326;28;20217;-68
2021/07/03 11:05:34;;;;;;;9.35;3.38;;;;;;;27.69;46.88;101059.38;5038884;28;20583;-68
2021/07/03 11:08:22;;;;;;;3.20;2.88;;;;;;;27.75;47.09;101064.06;5044135;28;20687;-68
2021/07/03 11:10:50;;;;;;;3.78;2.85;;;;;;;27.90;47.28;101058.38;5045539;28;20197;-68
2021/07/03 11:13:20;;;;;;;4.90;2.65;;;;;;;27.89;47.29;101049.25;5048950;28;20562;-68
2021/07/03 11:15:49;;;;;;;7.65;2.97;;;;;;;28.03;48.06;101059.25;5062873;28;20688;-68
2021/07/03 11:18:18;;;;;;;11.15;2.60;;;;;;;27.81;48.45;101050.28;5049063;28;20232;-68
2021/07/03 11:20:47;;;;;;;9.30;3.28;;;;;;;27.77;49.53;101053.66;5059182;28;20194;-69
2021/07/03 11:23:20;;;;;;;3.55;2.72;;;;;;;27.88;48.52;101044.78;5049041;28;20221;-69
2021/07/03 11:25:49;;;;;;;4.60;2.53;;;;;;;27.76;48.34;101055.59;5048579;28;20724;-68
2021/07/03 11:28:19;;;;;;;5.13;2.60;;;;;;;27.67;48.27;101053.22;5048822;28;20201;-69
2021/07/03 11:30:57;;;;;;;2.92;2.65;;;;;;;27.60;48.35;101052.34;5047972;28;20450;-68
2021/07/03 11:33:28;;;;;;;2.90;2.58;;;;;;;27.18;49.13;100990.84;5033962;28;20194;-69
2021/07/03 11:35:57;;;;;;;3.60;2.80;;;;;;;27.71;48.75;101037.94;5049169;28;20711;-68
2021/07/03 11:38:27;;;;;;;4.35;2.65;;;;;;;27.77;49.48;101042.63;5036884;28;20198;-67
2021/07/03 11:40:58;;;;;;;5.35;3.00;;;;;;;27.80;48.52;101031.16;5046474;28;20673;-66
2021/07/03 11:43:29;;;;;;;3.10;2.80;;;;;;;27.57;49.73;101025.16;5042398;28;20579;-66
2021/07/03 11:45:58;;;;;;;3.72;2.88;;;;;;;27.61;48.69;101026.44;5041534;28;20201;-66